Pagina principale
METAR-TAF:

METAR-TAF

Aeroporti :

Doylestown Airport

Doylestown, Pennsylvania, Stati Uniti

latitudine: 40-19-48N, longitudine: 075-07-21W, altezza: 120 m

Osservazione

Il bollettino è stato emesso 14 minuti fa, alle 07:54 UTC
Vento 3 kt da nord-ovest
Temperature 17°C
Umidità 68%
Pressione 1018 hPa
Visibilità: 16.1 km
Cielo sereno

METAR: KDYL 240754Z AUTO 32003KT 10SM CLR 17/11 A3007 RMK AO2 SLP179 T01670106

Ora: 04:08 (08:08 UTC)


TAF: mancante

Osservazioni e previsioni meteorologiche di più di 4000 aeroporti (messaggi METAR e TAF).

Le stazioni disponibili sono rappresentate dai dischi gialli e rossi sulla carta.

Puntare il mouse per vedere il nome della stazione.

Clicca sopra per visualizzare le osservazioni e previsioni meteorologiche.

Per cambiare la mappa : fare clic sui pulsanti verdi con una croce nera per ingrandire, il pulsante verde con un trattino per diminuire, o sulla freccia verde per le mappe adiacenti.


METAR-TAF: